createdAt,value
2023-05-10T00:01:42.978Z,15.30
2023-05-10T00:05:45.935Z,15.30
2023-05-10T00:09:48.696Z,15.40
2023-05-10T00:13:51.463Z,15.40
2023-05-10T00:17:55.678Z,15.30
2023-05-10T00:21:58.490Z,15.20
2023-05-10T00:26:01.293Z,15.20
2023-05-10T00:30:04.313Z,15.20
2023-05-10T00:34:08.449Z,15.10
2023-05-10T00:38:11.221Z,15.20
2023-05-10T00:42:14.005Z,15.20
2023-05-10T00:46:18.197Z,15.20
2023-05-10T00:50:22.818Z,15.00
2023-05-10T00:54:25.745Z,15.00
2023-05-10T00:58:29.437Z,14.90
2023-05-10T01:02:32.410Z,15.10
2023-05-10T01:06:36.600Z,15.10
2023-05-10T01:10:39.787Z,15.00
2023-05-10T01:14:42.644Z,15.00
2023-05-10T01:18:46.578Z,14.90
2023-05-10T01:23:32.931Z,14.90
2023-05-10T01:27:57.646Z,14.90
2023-05-10T01:32:26.424Z,14.70
2023-05-10T01:36:33.122Z,14.70
2023-05-10T01:40:41.563Z,14.80
2023-05-10T01:44:51.259Z,14.70
2023-05-10T01:48:59.529Z,14.70
2023-05-10T01:53:04.617Z,14.60
2023-05-10T01:57:10.934Z,14.60
2023-05-10T02:01:15.329Z,14.60
2023-05-10T02:05:20.922Z,14.60
2023-05-10T02:09:25.469Z,14.60
2023-05-10T02:13:29.878Z,14.60
2023-05-10T02:17:34.498Z,14.50
2023-05-10T02:21:40.299Z,14.60
2023-05-10T02:25:45.281Z,14.50
2023-05-10T02:29:49.258Z,14.50
2023-05-10T02:33:53.607Z,14.40
2023-05-10T02:37:59.967Z,14.40
2023-05-10T02:42:03.340Z,14.50
2023-05-10T02:46:06.188Z,14.40
2023-05-10T02:50:09.916Z,14.40
2023-05-10T02:54:22.354Z,14.40
2023-05-10T02:58:25.129Z,14.50
2023-05-10T03:02:28.116Z,14.50
2023-05-10T03:06:30.967Z,14.50
2023-05-10T03:10:40.089Z,14.30
2023-05-10T03:14:51.175Z,14.30
2023-05-10T03:19:00.320Z,14.30
2023-05-10T03:23:08.808Z,14.20
2023-05-10T03:27:15.781Z,14.40
2023-05-10T03:31:20.216Z,14.30
2023-05-10T03:35:23.149Z,14.30
2023-05-10T03:39:26.737Z,14.40
2023-05-10T03:43:35.349Z,14.30
2023-05-10T03:47:38.354Z,14.20
2023-05-10T03:51:41.458Z,14.30
2023-05-10T03:55:44.403Z,14.30
2023-05-10T03:59:48.517Z,14.20
2023-05-10T04:03:51.475Z,14.10
2023-05-10T04:07:54.409Z,14.10
2023-05-10T04:11:57.327Z,14.10
2023-05-10T04:16:01.405Z,14.30
2023-05-10T04:20:04.472Z,14.20
2023-05-10T04:24:07.650Z,14.20
2023-05-10T04:28:10.545Z,14.20
2023-05-10T04:32:14.750Z,14.10
2023-05-10T04:36:17.522Z,14.00
2023-05-10T04:40:20.629Z,14.00
2023-05-10T04:44:23.428Z,14.00
2023-05-10T04:48:27.753Z,14.00
2023-05-10T04:52:30.479Z,13.90
2023-05-10T04:56:33.214Z,13.90
2023-05-10T05:00:36.335Z,13.90
2023-05-10T05:04:40.461Z,13.80
2023-05-10T05:08:43.195Z,13.80
2023-05-10T05:12:46.012Z,13.80
2023-05-10T05:16:48.854Z,13.90
2023-05-10T05:20:52.995Z,13.70
2023-05-10T05:24:55.952Z,13.70
2023-05-10T05:28:58.731Z,13.70
2023-05-10T05:33:01.569Z,13.60
2023-05-10T05:37:05.827Z,13.60
2023-05-10T05:41:08.695Z,13.60
2023-05-10T05:45:14.052Z,13.60
2023-05-10T05:49:17.195Z,13.70
2023-05-10T05:53:21.339Z,13.70
2023-05-10T05:57:24.151Z,13.70
2023-05-10T06:01:26.965Z,13.70
2023-05-10T06:05:29.732Z,13.70
2023-05-10T06:09:33.933Z,13.80
2023-05-10T06:13:36.727Z,14.00
2023-05-10T06:17:39.852Z,14.20
2023-05-10T06:21:42.753Z,14.60
2023-05-10T06:25:46.895Z,15.00
2023-05-10T06:29:52.145Z,15.40
2023-05-10T06:33:57.130Z,15.70
2023-05-10T06:37:59.895Z,16.00
2023-05-10T06:42:05.497Z,16.30
2023-05-10T06:46:09.771Z,16.00
2023-05-10T06:50:13.263Z,16.20
2023-05-10T06:54:16.055Z,16.70
2023-05-10T06:58:20.286Z,17.40
2023-05-10T07:02:23.530Z,17.30
2023-05-10T07:06:33.279Z,16.90
2023-05-10T07:10:36.998Z,16.70
2023-05-10T07:14:41.184Z,16.60
2023-05-10T07:18:44.089Z,16.50
2023-05-10T07:22:46.928Z,16.60
2023-05-10T07:26:49.727Z,16.60
2023-05-10T07:30:53.986Z,16.60
2023-05-10T07:34:56.881Z,16.60
2023-05-10T07:38:59.712Z,16.70
2023-05-10T07:43:03.333Z,16.70
2023-05-10T07:47:07.569Z,16.50
2023-05-10T07:51:10.661Z,16.60
2023-05-10T07:55:13.800Z,16.90
2023-05-10T07:59:18.430Z,17.40
2023-05-10T08:03:22.748Z,17.30
2023-05-10T08:07:26.792Z,17.60
2023-05-10T08:11:29.703Z,17.60
2023-05-10T08:15:32.523Z,17.50
2023-05-10T08:19:36.741Z,17.80
2023-05-10T08:23:39.589Z,18.10
2023-05-10T08:27:42.427Z,18.20
2023-05-10T08:31:45.343Z,17.90
2023-05-10T08:35:49.649Z,17.80
2023-05-10T08:39:52.479Z,18.20
2023-05-10T08:43:56.411Z,18.10
2023-05-10T08:48:00.213Z,17.60
2023-05-10T08:52:08.292Z,17.10
2023-05-10T08:56:11.420Z,17.00
2023-05-10T09:00:16.336Z,17.00
2023-05-10T09:04:19.359Z,17.40
2023-05-10T09:08:26.332Z,18.50
2023-05-10T09:12:29.598Z,19.20
2023-05-10T09:16:32.444Z,19.00
2023-05-10T09:20:35.302Z,18.50
2023-05-10T09:24:43.375Z,18.00
2023-05-10T09:28:54.692Z,18.00
2023-05-10T09:32:58.909Z,18.10
2023-05-10T09:37:03.671Z,18.40
2023-05-10T09:41:18.361Z,18.50
2023-05-10T09:45:21.434Z,18.60
2023-05-10T09:49:24.673Z,18.60
2023-05-10T09:53:27.493Z,18.90
2023-05-10T09:57:32.903Z,19.70
2023-05-10T10:01:37.407Z,20.20
2023-05-10T10:05:42.902Z,20.20
2023-05-10T10:09:46.180Z,20.30
2023-05-10T10:13:50.832Z,20.90
2023-05-10T10:17:54.718Z,20.50
2023-05-10T10:21:57.509Z,20.00
2023-05-10T10:26:01.000Z,19.40
2023-05-10T10:30:15.897Z,18.90
2023-05-10T10:34:27.799Z,18.80
2023-05-10T10:39:01.666Z,19.00
2023-05-10T10:43:25.096Z,19.40
2023-05-10T10:47:34.156Z,19.80
2023-05-10T10:51:39.204Z,20.00
2023-05-10T10:55:49.245Z,19.60
2023-05-10T10:59:52.187Z,19.20
2023-05-10T11:04:23.000Z,18.90
2023-05-10T11:08:29.251Z,19.00
2023-05-10T11:12:31.881Z,19.10
2023-05-10T11:16:43.767Z,18.50
2023-05-10T11:20:53.124Z,17.80
2023-05-10T11:24:59.190Z,17.40
2023-05-10T11:29:04.052Z,17.10
2023-05-10T11:33:07.667Z,16.80
2023-05-10T11:37:11.851Z,16.50
2023-05-10T11:41:15.268Z,16.30
2023-05-10T11:45:18.285Z,16.20
2023-05-10T11:49:22.548Z,16.10
2023-05-10T11:53:28.798Z,16.00
2023-05-10T11:57:32.307Z,15.80
2023-05-10T12:01:36.136Z,15.80
2023-05-10T12:05:41.564Z,15.80
2023-05-10T12:10:03.808Z,15.90
2023-05-10T12:14:07.702Z,15.80
2023-05-10T12:18:11.359Z,15.80
2023-05-10T12:22:14.275Z,15.90
2023-05-10T12:26:18.497Z,15.60
2023-05-10T12:30:23.057Z,15.40
2023-05-10T12:34:31.952Z,15.40
2023-05-10T12:38:36.174Z,15.10
2023-05-10T12:42:41.271Z,15.10
2023-05-10T12:46:44.231Z,15.00
2023-05-10T12:50:47.344Z,15.10
2023-05-10T12:54:50.266Z,14.80
2023-05-10T12:58:54.472Z,15.00
2023-05-10T13:02:57.298Z,15.20
2023-05-10T13:07:01.349Z,15.30
2023-05-10T13:11:04.755Z,15.20
2023-05-10T13:15:10.108Z,15.00
2023-05-10T13:19:13.171Z,15.20
2023-05-10T13:23:16.018Z,15.00
2023-05-10T13:27:18.878Z,14.90
2023-05-10T13:31:23.225Z,14.60
2023-05-10T13:35:26.162Z,14.40
2023-05-10T13:39:31.857Z,14.20
2023-05-10T13:43:34.833Z,14.10
2023-05-10T13:47:39.572Z,14.20
2023-05-10T13:51:42.454Z,13.90
2023-05-10T13:55:45.393Z,13.80
2023-05-10T13:59:48.241Z,14.00
2023-05-10T14:03:52.694Z,14.10
2023-05-10T14:07:55.739Z,14.20
2023-05-10T14:11:58.644Z,14.20
2023-05-10T14:16:01.873Z,14.30
2023-05-10T14:20:07.442Z,14.40
2023-05-10T14:24:10.281Z,14.60
2023-05-10T14:28:13.423Z,14.40
2023-05-10T14:32:16.405Z,14.40
2023-05-10T14:36:21.450Z,14.50
2023-05-10T14:40:24.285Z,14.50
2023-05-10T14:44:27.214Z,14.60
2023-05-10T14:48:29.993Z,14.50
2023-05-10T14:52:34.487Z,14.50
2023-05-10T14:56:38.236Z,14.60
2023-05-10T15:00:43.209Z,14.50
2023-05-10T15:04:46.511Z,14.50
2023-05-10T15:08:51.418Z,14.40
2023-05-10T15:12:54.251Z,14.50
2023-05-10T15:16:57.111Z,14.30
2023-05-10T15:20:59.975Z,14.50
2023-05-10T15:25:04.253Z,14.50
2023-05-10T15:29:07.065Z,14.30
2023-05-10T15:33:09.926Z,14.30
2023-05-10T15:37:12.807Z,14.30
2023-05-10T15:41:17.117Z,14.10
2023-05-10T15:45:20.210Z,14.20
2023-05-10T15:49:23.010Z,14.20
2023-05-10T15:53:26.015Z,14.20
2023-05-10T15:57:30.156Z,14.30
2023-05-10T16:01:33.302Z,14.20
2023-05-10T16:05:36.081Z,14.20
2023-05-10T16:09:38.868Z,14.10
2023-05-10T16:13:43.039Z,14.10
2023-05-10T16:17:45.873Z,14.10
2023-05-10T16:21:48.814Z,14.20
2023-05-10T16:25:51.608Z,14.00
2023-05-10T16:29:55.825Z,13.80
2023-05-10T16:33:58.666Z,13.80
2023-05-10T16:38:01.532Z,13.90
2023-05-10T16:42:04.353Z,13.70
2023-05-10T16:46:12.831Z,13.70
2023-05-10T16:50:18.072Z,13.60
2023-05-10T16:54:21.702Z,13.50
2023-05-10T16:58:24.554Z,13.40
2023-05-10T17:02:28.897Z,13.50
2023-05-10T17:06:31.818Z,13.20
2023-05-10T17:10:34.649Z,13.10
2023-05-10T17:14:38.544Z,13.20
2023-05-10T17:18:43.311Z,13.20
2023-05-10T17:22:46.231Z,13.10
2023-05-10T17:26:49.065Z,13.10
2023-05-10T17:30:57.575Z,13.00
2023-05-10T17:35:01.801Z,13.00
2023-05-10T17:39:04.830Z,12.80
2023-05-10T17:43:07.869Z,12.90
2023-05-10T17:47:10.808Z,12.90
2023-05-10T17:51:15.331Z,12.80
2023-05-10T17:55:18.723Z,12.80
2023-05-10T17:59:22.602Z,12.70
2023-05-10T18:03:25.615Z,12.70
2023-05-10T18:07:30.246Z,12.70
2023-05-10T18:11:32.976Z,12.50
2023-05-10T18:15:36.218Z,12.50
2023-05-10T18:19:39.125Z,12.50
2023-05-10T18:23:43.495Z,12.50
2023-05-10T18:27:46.385Z,12.40
2023-05-10T18:31:49.227Z,12.50
2023-05-10T18:35:52.123Z,12.30
2023-05-10T18:39:56.394Z,12.40
2023-05-10T18:43:59.568Z,12.30
2023-05-10T18:48:02.550Z,12.30
2023-05-10T18:52:05.475Z,12.30
2023-05-10T18:56:09.911Z,12.20
2023-05-10T19:00:14.529Z,12.10
2023-05-10T19:04:17.360Z,12.10
2023-05-10T19:08:20.176Z,12.10
2023-05-10T19:12:24.285Z,12.10
2023-05-10T19:16:28.873Z,12.20
2023-05-10T19:20:31.805Z,12.20
2023-05-10T19:24:35.189Z,12.10
2023-05-10T19:28:39.580Z,12.00
2023-05-10T19:32:43.981Z,11.90
2023-05-10T19:36:46.832Z,11.90
2023-05-10T19:40:50.302Z,12.00
2023-05-10T19:44:54.672Z,12.00
2023-05-10T19:48:57.491Z,11.80
2023-05-10T19:53:00.703Z,12.00
2023-05-10T19:57:03.686Z,11.90
2023-05-10T20:05:34.825Z,11.90
2023-05-10T20:09:37.651Z,11.70
2023-05-10T20:13:40.483Z,11.80
2023-05-10T20:17:44.779Z,11.80
2023-05-10T20:21:47.668Z,11.60
2023-05-10T20:25:50.727Z,11.70
2023-05-10T20:29:54.065Z,11.70
2023-05-10T20:33:58.223Z,11.60
2023-05-10T20:38:02.112Z,11.60
2023-05-10T20:42:05.420Z,11.60
2023-05-10T20:46:08.672Z,11.60
2023-05-10T20:50:13.051Z,11.40
2023-05-10T20:54:16.039Z,11.50
2023-05-10T20:58:18.919Z,11.40
2023-05-10T21:02:21.793Z,11.40
2023-05-10T21:06:26.293Z,11.40
2023-05-10T21:10:29.277Z,11.30
2023-05-10T21:14:32.129Z,11.30
2023-05-10T21:18:34.968Z,11.30
2023-05-10T21:22:39.233Z,11.20
2023-05-10T21:26:42.068Z,11.20
2023-05-10T21:30:44.975Z,11.00
2023-05-10T21:34:47.795Z,11.00
2023-05-10T21:38:52.012Z,11.00
2023-05-10T21:42:54.824Z,11.10
2023-05-10T21:46:57.660Z,11.00
2023-05-10T21:51:01.545Z,11.00
2023-05-10T21:55:08.375Z,10.80
2023-05-10T21:59:11.180Z,10.80
2023-05-10T22:03:14.226Z,10.90
2023-05-10T22:07:17.345Z,10.90
2023-05-10T22:11:21.797Z,10.60
2023-05-10T22:15:24.562Z,10.60
2023-05-10T22:19:30.626Z,10.70
2023-05-10T22:23:33.626Z,10.60
2023-05-10T22:27:38.050Z,10.70
2023-05-10T22:31:40.879Z,10.70
2023-05-10T22:35:43.871Z,10.50
2023-05-10T22:39:46.945Z,10.60
2023-05-10T22:43:51.192Z,10.60
2023-05-10T22:47:54.094Z,10.50
2023-05-10T22:51:56.935Z,10.40
2023-05-10T22:55:59.930Z,10.20
2023-05-10T23:00:05.473Z,10.40
2023-05-10T23:04:08.437Z,10.40
2023-05-10T23:08:11.423Z,10.40
2023-05-10T23:12:14.238Z,10.40
2023-05-10T23:16:18.643Z,10.30
2023-05-10T23:20:21.807Z,10.30
2023-05-10T23:24:24.789Z,10.40
2023-05-10T23:28:27.681Z,10.20
2023-05-10T23:32:32.919Z,10.20
2023-05-10T23:36:35.738Z,10.20
2023-05-10T23:40:38.538Z,10.10
2023-05-10T23:44:41.438Z,10.10
2023-05-10T23:48:45.658Z,10.20
2023-05-10T23:52:48.421Z,10.20
2023-05-10T23:56:51.563Z,10.10
